createdAt,value
2018-04-30T00:01:13.665Z,63.17
2018-04-30T00:03:44.460Z,62.57
2018-04-30T00:06:15.240Z,61.90
2018-04-30T00:08:46.031Z,61.94
2018-04-30T00:11:16.805Z,61.67
2018-04-30T00:13:47.619Z,61.87
2018-04-30T00:16:18.383Z,61.89
2018-04-30T00:18:49.200Z,61.92
2018-04-30T00:21:19.960Z,62.16
2018-04-30T00:23:50.740Z,62.09
2018-04-30T00:26:21.531Z,62.32
2018-04-30T00:28:52.320Z,63.03
2018-04-30T00:31:23.090Z,63.14
2018-04-30T00:33:53.881Z,63.71
2018-04-30T00:36:24.659Z,64.23
2018-04-30T00:38:55.452Z,64.33
2018-04-30T00:41:26.229Z,65.04
2018-04-30T00:43:57.056Z,65.15
2018-04-30T00:46:27.815Z,65.58
2018-04-30T00:48:58.607Z,65.90
2018-04-30T00:51:29.364Z,65.41
2018-04-30T00:54:00.167Z,65.67
2018-04-30T00:56:30.956Z,65.77
2018-04-30T00:59:01.753Z,65.99
2018-04-30T01:01:33.319Z,66.36
2018-04-30T01:04:04.097Z,66.64
2018-04-30T01:06:34.859Z,67.24
2018-04-30T01:09:05.648Z,67.41
2018-04-30T01:11:36.442Z,67.64
2018-04-30T01:14:07.264Z,67.70
2018-04-30T01:16:40.030Z,67.99
2018-04-30T01:19:10.824Z,67.82
2018-04-30T01:21:41.589Z,66.72
2018-04-30T01:24:12.382Z,67.02
2018-04-30T01:26:43.155Z,66.83
2018-04-30T01:29:13.959Z,66.90
2018-04-30T01:31:44.715Z,66.88
2018-04-30T01:34:15.515Z,67.36
2018-04-30T01:36:46.275Z,67.89
2018-04-30T01:39:17.087Z,67.86
2018-04-30T01:41:47.875Z,68.05
2018-04-30T01:44:18.681Z,68.52
2018-04-30T01:46:49.476Z,67.98
2018-04-30T01:49:20.256Z,68.18
2018-04-30T01:51:51.027Z,68.07
2018-04-30T01:54:21.847Z,67.95
2018-04-30T01:56:52.652Z,68.18
2018-04-30T01:59:23.451Z,68.27
2018-04-30T02:01:54.239Z,68.67
2018-04-30T02:04:25.028Z,69.46
2018-04-30T02:06:55.797Z,69.84
2018-04-30T02:09:26.583Z,69.71
2018-04-30T02:11:57.364Z,69.62
2018-04-30T02:14:28.155Z,70.37
2018-04-30T02:16:58.924Z,70.16
2018-04-30T02:19:29.703Z,70.75
2018-04-30T02:22:00.463Z,71.14
2018-04-30T02:24:31.250Z,71.24
2018-04-30T02:27:02.025Z,71.52
2018-04-30T02:29:32.850Z,71.85
2018-04-30T02:32:03.645Z,72.13
2018-04-30T02:34:34.477Z,72.38
2018-04-30T02:37:05.243Z,72.96
2018-04-30T02:39:36.043Z,73.13
2018-04-30T02:42:06.828Z,73.05
2018-04-30T02:44:37.627Z,72.51
2018-04-30T02:47:08.403Z,72.31
2018-04-30T02:49:39.791Z,72.13
2018-04-30T02:52:10.594Z,72.46
2018-04-30T02:54:41.374Z,72.72
2018-04-30T02:57:12.143Z,73.01
2018-04-30T02:59:42.960Z,72.99
2018-04-30T03:02:13.748Z,72.09
2018-04-30T03:04:44.539Z,71.14
2018-04-30T03:07:15.296Z,71.14
2018-04-30T03:09:46.095Z,71.37
2018-04-30T03:12:17.541Z,71.03
2018-04-30T03:14:48.363Z,71.14
2018-04-30T03:17:19.145Z,70.25
2018-04-30T03:19:49.944Z,69.99
2018-04-30T03:22:20.716Z,69.72
2018-04-30T03:24:51.516Z,70.22
2018-04-30T03:27:22.344Z,70.73
2018-04-30T03:29:53.112Z,71.15
2018-04-30T03:32:23.928Z,71.34
2018-04-30T03:34:54.720Z,71.72
2018-04-30T03:37:25.497Z,71.37
2018-04-30T03:39:56.263Z,70.87
2018-04-30T03:42:27.051Z,70.50
2018-04-30T03:44:57.871Z,69.32
2018-04-30T03:47:28.635Z,69.07
2018-04-30T03:49:59.415Z,68.53
2018-04-30T03:52:30.199Z,68.69
2018-04-30T03:55:01.016Z,69.06
2018-04-30T03:57:31.784Z,68.57
2018-04-30T04:00:02.584Z,68.83
2018-04-30T04:02:45.788Z,68.56
2018-04-30T04:05:28.958Z,67.03
2018-04-30T04:07:59.752Z,66.68
2018-04-30T04:10:30.536Z,65.08
2018-04-30T04:13:01.317Z,64.69
2018-04-30T04:15:32.101Z,64.56
2018-04-30T04:18:02.875Z,64.33
2018-04-30T04:20:33.657Z,64.66
2018-04-30T04:23:04.435Z,64.40
2018-04-30T04:25:36.164Z,64.02
2018-04-30T04:28:06.935Z,63.84
2018-04-30T04:30:37.731Z,63.92
2018-04-30T04:33:08.591Z,64.06
2018-04-30T04:35:39.371Z,64.43
2018-04-30T04:38:10.143Z,65.35
2018-04-30T04:40:40.924Z,65.61
2018-04-30T04:43:11.718Z,65.64
2018-04-30T04:45:42.510Z,65.06
2018-04-30T04:48:13.267Z,63.81
2018-04-30T04:50:44.059Z,63.72
2018-04-30T04:53:14.824Z,62.92
2018-04-30T04:55:45.588Z,63.20
2018-04-30T04:58:16.395Z,63.71
2018-04-30T05:00:47.187Z,62.89
2018-04-30T05:03:17.970Z,62.27
2018-04-30T05:05:48.771Z,62.09
2018-04-30T05:08:19.531Z,61.34
2018-04-30T05:10:50.345Z,61.25
2018-04-30T05:13:21.647Z,60.73
2018-04-30T05:15:52.487Z,60.93
2018-04-30T05:18:23.309Z,60.49
2018-04-30T05:20:54.199Z,60.11
2018-04-30T05:23:24.952Z,59.79
2018-04-30T05:25:55.759Z,59.94
2018-04-30T05:28:27.041Z,59.87
2018-04-30T05:30:57.820Z,59.67
2018-04-30T05:33:29.610Z,59.73
2018-04-30T05:36:00.416Z,59.88
2018-04-30T05:38:31.187Z,59.61
2018-04-30T05:41:01.980Z,59.80
2018-04-30T05:43:32.871Z,59.58
2018-04-30T05:46:03.708Z,59.09
2018-04-30T05:48:34.481Z,58.90
2018-04-30T05:51:05.283Z,58.75
2018-04-30T05:53:36.063Z,59.35
2018-04-30T05:56:06.877Z,59.86
2018-04-30T05:58:37.703Z,60.50
2018-04-30T06:01:08.536Z,61.29
2018-04-30T06:03:39.318Z,61.77
2018-04-30T06:06:10.151Z,61.40
2018-04-30T06:08:40.936Z,61.71
2018-04-30T06:11:11.719Z,60.00
2018-04-30T06:13:42.487Z,56.54
2018-04-30T06:16:13.287Z,56.27
2018-04-30T06:18:44.044Z,54.05
2018-04-30T06:21:14.862Z,52.64
2018-04-30T06:23:45.641Z,50.42
2018-04-30T06:26:16.433Z,50.16
2018-04-30T06:28:47.228Z,49.55
2018-04-30T06:31:18.025Z,49.41
2018-04-30T06:33:48.805Z,48.89
2018-04-30T06:36:19.599Z,48.89
2018-04-30T06:38:50.392Z,48.81
2018-04-30T06:41:21.174Z,48.07
2018-04-30T06:43:52.805Z,47.93
2018-04-30T06:46:23.655Z,48.06
2018-04-30T06:48:54.456Z,47.71
2018-04-30T06:51:25.259Z,47.74
2018-04-30T06:53:56.035Z,47.45
2018-04-30T06:56:26.841Z,47.96
2018-04-30T06:58:57.656Z,47.63
2018-04-30T07:01:28.452Z,47.65
2018-04-30T07:03:59.299Z,47.79
2018-04-30T07:06:30.112Z,47.98
2018-04-30T07:09:00.899Z,47.59
2018-04-30T07:11:31.688Z,47.73
2018-04-30T07:14:03.183Z,47.48
2018-04-30T07:16:33.975Z,47.47
2018-04-30T07:19:04.750Z,47.42
2018-04-30T07:21:35.555Z,48.46
2018-04-30T07:24:06.360Z,47.88
2018-04-30T07:26:37.231Z,47.12
2018-04-30T07:29:08.022Z,46.31
2018-04-30T07:31:38.868Z,46.13
2018-04-30T07:34:09.804Z,45.75
2018-04-30T07:36:40.595Z,47.81
2018-04-30T07:39:11.379Z,48.70
2018-04-30T07:41:42.164Z,47.98
2018-04-30T07:44:12.979Z,47.77
2018-04-30T07:46:43.804Z,47.31
2018-04-30T07:49:14.587Z,47.52
2018-04-30T07:51:45.358Z,48.57
2018-04-30T07:54:16.148Z,49.80
2018-04-30T07:56:50.473Z,49.07
2018-04-30T07:59:21.246Z,49.44
2018-04-30T08:01:52.015Z,49.29
2018-04-30T08:04:22.775Z,48.42
2018-04-30T08:06:53.592Z,49.16
2018-04-30T08:09:24.355Z,49.43
2018-04-30T08:11:55.141Z,48.96
2018-04-30T08:14:25.916Z,49.77
2018-04-30T08:16:56.735Z,48.85
2018-04-30T08:19:27.492Z,49.52
2018-04-30T08:21:58.295Z,50.83
2018-04-30T08:24:29.055Z,51.88
2018-04-30T08:26:59.823Z,52.32
2018-04-30T08:29:30.613Z,54.41
2018-04-30T08:32:01.446Z,56.05
2018-04-30T08:34:32.213Z,56.62
2018-04-30T08:37:03.027Z,59.34
2018-04-30T08:39:33.796Z,62.36
2018-04-30T08:42:04.587Z,63.57
2018-04-30T08:44:35.369Z,68.91
2018-04-30T08:47:06.154Z,64.63
2018-04-30T08:49:36.912Z,66.31
2018-04-30T08:52:07.696Z,63.13
2018-04-30T08:54:38.466Z,63.00
2018-04-30T08:57:09.259Z,61.97
2018-04-30T08:59:40.024Z,62.07
2018-04-30T09:02:10.836Z,62.30
2018-04-30T09:04:41.599Z,60.68
2018-04-30T09:07:12.411Z,61.05
2018-04-30T09:09:43.248Z,59.83
2018-04-30T09:12:14.046Z,62.07
2018-04-30T09:14:44.818Z,63.06
2018-04-30T09:17:15.612Z,62.99
2018-04-30T09:19:46.355Z,61.85
2018-04-30T09:22:17.140Z,62.95
2018-04-30T09:24:47.895Z,61.04
2018-04-30T09:27:18.682Z,63.29
2018-04-30T09:29:49.456Z,59.72
2018-04-30T09:32:20.245Z,57.49
2018-04-30T09:34:51.006Z,58.65
2018-04-30T09:37:21.802Z,55.73
2018-04-30T09:39:52.573Z,54.92
2018-04-30T09:42:23.382Z,52.54
2018-04-30T09:44:54.154Z,50.04
2018-04-30T09:47:24.942Z,46.36
2018-04-30T09:49:55.705Z,44.63
2018-04-30T09:52:26.500Z,44.29
2018-04-30T09:54:57.271Z,42.67
2018-04-30T09:57:28.051Z,44.27
2018-04-30T09:59:58.811Z,42.85
2018-04-30T10:02:29.617Z,44.18
2018-04-30T10:05:00.395Z,44.13
2018-04-30T10:07:31.179Z,45.99
2018-04-30T10:10:02.639Z,46.21
2018-04-30T10:12:33.437Z,44.31
2018-04-30T10:15:04.232Z,44.26
2018-04-30T10:17:35.075Z,44.49
2018-04-30T10:20:05.854Z,44.14
2018-04-30T10:22:36.683Z,44.11
2018-04-30T10:25:07.454Z,45.22
2018-04-30T10:27:38.259Z,43.45
2018-04-30T10:30:09.019Z,44.29
2018-04-30T10:32:39.797Z,42.82
2018-04-30T10:35:10.575Z,44.04
2018-04-30T10:37:41.442Z,44.29
2018-04-30T10:40:12.155Z,43.17
2018-04-30T10:42:42.967Z,42.98
2018-04-30T10:45:13.723Z,43.09
2018-04-30T10:47:44.539Z,42.80
2018-04-30T10:52:52.975Z,41.30
2018-04-30T10:55:23.784Z,40.35
2018-04-30T10:57:54.579Z,40.93
2018-04-30T11:00:25.338Z,41.72
2018-04-30T11:02:56.144Z,41.36
2018-04-30T11:05:26.902Z,41.29
2018-04-30T11:07:57.690Z,41.21
2018-04-30T11:10:28.499Z,40.61
2018-04-30T11:12:59.308Z,40.15
2018-04-30T11:15:30.127Z,39.21
2018-04-30T11:18:00.964Z,41.35
2018-04-30T11:20:31.748Z,41.62
2018-04-30T11:23:02.564Z,39.14
2018-04-30T11:25:33.332Z,40.75
2018-04-30T11:28:04.195Z,38.09
2018-04-30T11:30:34.972Z,40.42
2018-04-30T11:33:05.755Z,37.42
2018-04-30T11:35:36.592Z,37.56
2018-04-30T11:38:07.469Z,38.71
2018-04-30T11:40:38.255Z,39.00
2018-04-30T11:43:09.071Z,39.08
2018-04-30T11:45:39.856Z,38.27
2018-04-30T11:48:10.755Z,37.92
2018-04-30T11:50:41.532Z,36.44
2018-04-30T11:53:12.372Z,36.62
2018-04-30T11:55:43.175Z,34.88
2018-04-30T11:58:14.039Z,33.72
2018-04-30T12:00:44.857Z,33.40
2018-04-30T12:03:15.662Z,34.58
2018-04-30T12:05:46.431Z,35.15
2018-04-30T12:08:17.248Z,33.74
2018-04-30T12:10:48.053Z,34.36
2018-04-30T12:13:18.849Z,33.99
2018-04-30T12:15:49.635Z,33.60
2018-04-30T12:18:20.471Z,32.07
2018-04-30T12:20:51.269Z,31.19
2018-04-30T12:23:22.073Z,31.72
2018-04-30T12:25:52.858Z,32.23
2018-04-30T12:28:23.657Z,31.72
2018-04-30T12:30:54.448Z,30.40
2018-04-30T12:33:25.342Z,29.80
2018-04-30T12:35:56.144Z,29.51
2018-04-30T12:38:26.964Z,27.97
2018-04-30T12:40:57.762Z,28.90
2018-04-30T12:43:28.566Z,29.83
2018-04-30T12:45:59.343Z,30.53
2018-04-30T12:48:30.135Z,29.13
2018-04-30T12:51:00.903Z,29.43
2018-04-30T12:53:31.776Z,27.90
2018-04-30T12:56:02.626Z,27.17
2018-04-30T12:58:33.376Z,27.66
2018-04-30T13:01:04.156Z,27.74
2018-04-30T13:03:34.955Z,27.52
2018-04-30T13:06:05.739Z,27.00
2018-04-30T13:08:36.520Z,26.68
2018-04-30T13:11:08.339Z,26.54
2018-04-30T13:13:39.147Z,26.22
2018-04-30T13:16:09.949Z,28.07
2018-04-30T13:18:40.751Z,27.64
2018-04-30T13:21:11.526Z,27.53
2018-04-30T13:23:42.336Z,27.71
2018-04-30T13:26:13.120Z,26.92
2018-04-30T13:28:43.939Z,26.09
2018-04-30T13:31:15.152Z,26.35
2018-04-30T13:33:45.999Z,27.06
2018-04-30T13:36:18.749Z,28.11
2018-04-30T13:38:49.565Z,26.72
2018-04-30T13:41:20.352Z,25.99
2018-04-30T13:43:51.190Z,24.04
2018-04-30T13:46:21.959Z,25.89
2018-04-30T13:48:52.770Z,26.27
2018-04-30T13:51:23.532Z,26.16
2018-04-30T13:53:54.330Z,27.50
2018-04-30T13:56:25.120Z,26.71
2018-04-30T13:58:55.931Z,25.26
2018-04-30T14:01:26.692Z,26.11
2018-04-30T14:03:57.514Z,26.70
2018-04-30T14:06:28.320Z,26.49
2018-04-30T14:08:59.123Z,27.20
2018-04-30T14:11:29.944Z,26.36
2018-04-30T14:14:00.729Z,26.93
2018-04-30T14:16:31.511Z,25.14
2018-04-30T14:19:02.314Z,25.25
2018-04-30T14:21:33.197Z,24.46
2018-04-30T14:24:03.972Z,24.52
2018-04-30T14:26:34.738Z,25.68
2018-04-30T14:29:05.550Z,25.28
2018-04-30T14:31:36.426Z,24.79
2018-04-30T14:34:07.176Z,25.88
2018-04-30T14:36:38.086Z,26.97
2018-04-30T14:39:08.892Z,25.71
2018-04-30T14:41:39.679Z,23.62
2018-04-30T14:44:10.479Z,26.36
2018-04-30T14:46:41.255Z,27.54
2018-04-30T14:49:12.036Z,27.29
2018-04-30T14:51:43.557Z,27.40
2018-04-30T14:54:14.365Z,28.59
2018-04-30T14:56:45.230Z,29.90
2018-04-30T14:59:15.968Z,30.97
2018-04-30T15:01:46.753Z,27.74
2018-04-30T15:04:17.536Z,26.46
2018-04-30T15:06:48.309Z,27.73
2018-04-30T15:09:19.101Z,27.40
2018-04-30T15:11:49.883Z,27.44
2018-04-30T15:14:20.680Z,27.82
2018-04-30T15:16:51.453Z,26.36
2018-04-30T15:19:22.247Z,25.66
2018-04-30T15:21:53.062Z,25.34
2018-04-30T15:24:23.867Z,23.77
2018-04-30T15:26:54.632Z,23.15
2018-04-30T15:29:25.542Z,23.88
2018-04-30T15:31:56.316Z,27.99
2018-04-30T15:34:27.127Z,26.66
2018-04-30T15:36:57.890Z,25.83
2018-04-30T15:39:28.668Z,27.13
2018-04-30T15:41:59.574Z,26.08
2018-04-30T15:44:30.283Z,24.92
2018-04-30T15:47:01.096Z,26.28
2018-04-30T15:49:31.953Z,25.59
2018-04-30T15:52:02.743Z,25.75
2018-04-30T15:54:33.575Z,26.09
2018-04-30T15:57:04.331Z,25.32
2018-04-30T15:59:35.135Z,24.76
2018-04-30T16:02:05.924Z,26.40
2018-04-30T16:04:36.777Z,24.33
2018-04-30T16:07:08.272Z,25.00
2018-04-30T16:09:39.088Z,26.19
2018-04-30T16:12:09.861Z,25.86
2018-04-30T16:14:41.683Z,27.52
2018-04-30T16:17:12.471Z,27.43
2018-04-30T16:19:43.329Z,27.13
2018-04-30T16:22:14.093Z,27.81
2018-04-30T16:24:44.919Z,28.17
2018-04-30T16:27:15.714Z,29.75
2018-04-30T16:29:46.533Z,35.07
2018-04-30T16:32:17.344Z,37.07
2018-04-30T16:34:48.143Z,37.93
2018-04-30T16:37:18.931Z,37.78
2018-04-30T16:39:50.299Z,38.87
2018-04-30T16:42:21.143Z,39.91
2018-04-30T16:44:51.983Z,41.35
2018-04-30T16:47:22.781Z,42.13
2018-04-30T16:49:53.591Z,42.45
2018-04-30T16:52:24.383Z,43.32
2018-04-30T16:54:55.151Z,43.80
2018-04-30T16:57:25.912Z,43.94
2018-04-30T16:59:56.731Z,44.24
2018-04-30T17:02:27.531Z,44.85
2018-04-30T17:04:58.332Z,45.05
2018-04-30T17:07:29.091Z,45.19
2018-04-30T17:10:01.352Z,45.26
2018-04-30T17:12:32.139Z,45.18
2018-04-30T17:15:02.939Z,45.79
2018-04-30T17:17:33.700Z,45.83
2018-04-30T17:20:04.479Z,46.01
2018-04-30T17:22:35.239Z,46.31
2018-04-30T17:25:06.041Z,46.56
2018-04-30T17:27:36.807Z,47.15
2018-04-30T17:30:07.596Z,46.88
2018-04-30T17:32:38.357Z,47.30
2018-04-30T17:35:09.161Z,48.08
2018-04-30T17:37:39.911Z,48.46
2018-04-30T17:40:10.710Z,49.11
2018-04-30T17:42:41.488Z,49.32
2018-04-30T17:45:12.281Z,49.36
2018-04-30T17:47:43.050Z,49.44
2018-04-30T17:50:13.832Z,49.78
2018-04-30T17:52:44.587Z,48.94
2018-04-30T17:55:22.359Z,49.50
2018-04-30T17:57:53.140Z,49.46
2018-04-30T18:00:23.935Z,49.23
2018-04-30T18:02:54.730Z,49.47
2018-04-30T18:05:25.543Z,49.43
2018-04-30T18:07:56.315Z,49.66
2018-04-30T18:10:27.115Z,49.99
2018-04-30T18:12:57.915Z,50.11
2018-04-30T18:15:28.711Z,50.40
2018-04-30T18:17:59.504Z,51.14
2018-04-30T18:20:30.312Z,51.18
2018-04-30T18:23:01.075Z,51.73
2018-04-30T18:25:31.912Z,52.13
2018-04-30T18:28:02.688Z,52.44
2018-04-30T18:30:33.503Z,52.63
2018-04-30T18:33:04.295Z,53.03
2018-04-30T18:35:35.099Z,53.73
2018-04-30T18:38:05.884Z,54.22
2018-04-30T18:40:36.657Z,54.43
2018-04-30T18:43:07.440Z,54.83
2018-04-30T18:45:38.215Z,54.67
2018-04-30T18:50:53.015Z,55.13
2018-04-30T18:53:23.851Z,56.02
2018-04-30T18:55:54.637Z,55.72
2018-04-30T18:58:25.407Z,55.81
2018-04-30T19:00:56.185Z,56.12
2018-04-30T19:03:26.951Z,57.13
2018-04-30T19:05:57.727Z,57.98
2018-04-30T19:08:28.565Z,58.56
2018-04-30T19:10:59.399Z,58.95
2018-04-30T19:13:30.187Z,59.37
2018-04-30T19:16:01.003Z,60.29
2018-04-30T19:18:31.777Z,59.44
2018-04-30T19:21:02.584Z,57.36
2018-04-30T19:23:33.344Z,52.65
2018-04-30T19:26:04.141Z,49.79
2018-04-30T19:28:34.937Z,48.22
2018-04-30T19:31:05.735Z,47.00
2018-04-30T19:33:36.513Z,45.32
2018-04-30T19:36:07.317Z,45.24
2018-04-30T19:38:38.099Z,44.95
2018-04-30T19:41:08.914Z,44.87
2018-04-30T19:43:39.700Z,44.69
2018-04-30T19:46:10.503Z,44.06
2018-04-30T19:48:41.281Z,43.56
2018-04-30T19:51:12.076Z,43.19
2018-04-30T19:53:44.364Z,42.70
2018-04-30T19:56:15.199Z,43.90
2018-04-30T19:58:45.988Z,48.34
2018-04-30T20:01:16.837Z,53.00
2018-04-30T20:03:47.627Z,58.34
2018-04-30T20:06:18.408Z,60.70
2018-04-30T20:08:50.283Z,61.32
2018-04-30T20:11:21.012Z,64.54
2018-04-30T20:13:51.842Z,63.28
2018-04-30T20:16:22.628Z,65.39
2018-04-30T20:18:53.423Z,67.59
2018-04-30T20:21:24.224Z,65.65
2018-04-30T20:23:55.069Z,69.73
2018-04-30T20:26:25.921Z,67.99
2018-04-30T20:28:56.710Z,68.67
2018-04-30T20:31:27.523Z,67.71
2018-04-30T20:33:58.388Z,65.24
2018-04-30T20:36:29.232Z,66.85
2018-04-30T20:39:00.089Z,66.15
2018-04-30T20:41:30.867Z,66.45
2018-04-30T20:44:01.663Z,64.96
2018-04-30T20:46:32.463Z,66.68
2018-04-30T20:49:03.227Z,66.70
2018-04-30T20:51:34.065Z,66.73
2018-04-30T20:54:04.833Z,64.69
2018-04-30T20:56:35.648Z,66.59
2018-04-30T20:59:07.380Z,65.67
2018-04-30T21:01:38.200Z,65.31
2018-04-30T21:04:08.974Z,65.55
2018-04-30T21:06:39.759Z,64.80
2018-04-30T21:09:11.487Z,61.68
2018-04-30T21:11:42.305Z,64.53
2018-04-30T21:14:13.080Z,64.00
2018-04-30T21:16:43.908Z,63.29
2018-04-30T21:19:14.663Z,63.52
2018-04-30T21:21:45.439Z,63.18
2018-04-30T21:24:16.698Z,62.96
2018-04-30T21:26:47.472Z,61.75
2018-04-30T21:29:18.267Z,62.50
2018-04-30T21:31:49.079Z,60.64
2018-04-30T21:34:19.839Z,60.85
2018-04-30T21:36:50.660Z,60.66
2018-04-30T21:39:21.419Z,60.11
2018-04-30T21:41:52.229Z,59.26
2018-04-30T21:44:23.015Z,59.72
2018-04-30T21:46:53.816Z,58.76
2018-04-30T21:49:24.633Z,57.92
2018-04-30T21:51:55.427Z,57.79
2018-04-30T21:54:26.204Z,57.75
2018-04-30T21:56:56.983Z,57.54
2018-04-30T21:59:27.772Z,57.19
2018-04-30T22:01:58.603Z,57.46
2018-04-30T22:04:29.359Z,56.07
2018-04-30T22:07:00.156Z,56.42
2018-04-30T22:09:30.937Z,56.08
2018-04-30T22:12:02.426Z,56.45
2018-04-30T22:14:33.204Z,55.81
2018-04-30T22:17:03.988Z,55.67
2018-04-30T22:19:35.009Z,56.04
2018-04-30T22:22:05.840Z,55.81
2018-04-30T22:24:36.626Z,55.88
2018-04-30T22:27:07.400Z,54.33
2018-04-30T22:29:38.190Z,54.97
2018-04-30T22:32:08.977Z,54.51
2018-04-30T22:34:39.728Z,54.23
2018-04-30T22:37:10.520Z,54.82
2018-04-30T22:39:41.309Z,54.38
2018-04-30T22:42:12.170Z,54.34
2018-04-30T22:44:42.971Z,53.84
2018-04-30T22:47:13.753Z,54.64
2018-04-30T22:49:44.558Z,55.50
2018-04-30T22:52:15.408Z,56.04
2018-04-30T22:54:46.225Z,55.42
2018-04-30T22:57:17.018Z,56.84
2018-04-30T22:59:47.850Z,60.15
2018-04-30T23:02:18.665Z,63.80
2018-04-30T23:04:49.435Z,68.95
2018-04-30T23:07:20.259Z,71.21
2018-04-30T23:09:51.064Z,72.66
2018-04-30T23:12:21.875Z,75.09
2018-04-30T23:14:52.659Z,76.50
2018-04-30T23:17:23.486Z,82.45
2018-04-30T23:19:54.335Z,83.79
2018-04-30T23:22:25.163Z,84.99
2018-04-30T23:24:55.999Z,85.89
2018-04-30T23:27:26.811Z,81.51
2018-04-30T23:29:57.643Z,85.72
2018-04-30T23:32:28.434Z,84.24
2018-04-30T23:34:59.243Z,84.03
2018-04-30T23:37:30.014Z,84.01
2018-04-30T23:40:00.785Z,83.00
2018-04-30T23:42:31.580Z,83.47
2018-04-30T23:45:02.620Z,83.50
2018-04-30T23:47:33.455Z,84.19
2018-04-30T23:50:04.228Z,84.56
2018-04-30T23:52:35.047Z,85.97
2018-04-30T23:55:05.891Z,87.25
2018-04-30T23:57:36.742Z,88.17
